createdAt,value
2017-12-24T00:01:47.670Z,3.07
2017-12-24T00:04:15.948Z,4.27
2017-12-24T00:06:44.958Z,3.87
2017-12-24T00:09:13.208Z,6.23
2017-12-24T00:11:41.467Z,2.97
2017-12-24T00:14:09.707Z,4.47
2017-12-24T00:16:38.752Z,3.43
2017-12-24T00:19:07.009Z,3.13
2017-12-24T00:21:35.289Z,2.70
2017-12-24T00:24:04.380Z,5.07
2017-12-24T00:26:33.455Z,4.60
2017-12-24T00:29:01.742Z,4.67
2017-12-24T00:31:30.062Z,6.50
2017-12-24T00:33:58.310Z,3.93
2017-12-24T00:36:26.557Z,3.13
2017-12-24T00:38:55.642Z,4.30
2017-12-24T00:41:23.892Z,2.43
2017-12-24T00:43:52.143Z,3.07
2017-12-24T00:46:21.160Z,3.10
2017-12-24T00:48:50.223Z,4.20
2017-12-24T00:51:18.615Z,2.77
2017-12-24T00:53:46.858Z,3.20
2017-12-24T00:56:15.100Z,3.73
2017-12-24T00:58:43.352Z,3.00
2017-12-24T01:01:11.603Z,2.67
2017-12-24T01:03:40.631Z,3.87
2017-12-24T01:06:08.863Z,5.73
2017-12-24T01:08:37.119Z,4.00
2017-12-24T01:11:05.423Z,2.53
2017-12-24T01:13:33.775Z,3.67
2017-12-24T01:16:02.077Z,3.20
2017-12-24T01:18:30.472Z,4.17
2017-12-24T01:20:58.727Z,4.27
2017-12-24T01:23:27.743Z,2.67
2017-12-24T01:25:56.742Z,3.13
2017-12-24T01:28:25.772Z,1.60
2017-12-24T01:30:54.011Z,3.70
2017-12-24T01:33:22.248Z,3.33
2017-12-24T01:35:50.498Z,3.83
2017-12-24T01:38:18.764Z,3.60
2017-12-24T01:40:47.014Z,2.67
2017-12-24T01:43:15.283Z,4.10
2017-12-24T01:45:43.562Z,3.80
2017-12-24T01:48:11.799Z,3.80
2017-12-24T01:50:40.067Z,5.07
2017-12-24T01:53:09.066Z,3.17
2017-12-24T01:55:38.101Z,5.37
2017-12-24T01:58:06.351Z,6.17
2017-12-24T02:00:34.603Z,8.30
2017-12-24T02:03:03.055Z,1.80
2017-12-24T02:05:31.404Z,1.50
2017-12-24T02:07:59.650Z,1.23
2017-12-24T02:10:28.010Z,1.50
2017-12-24T02:12:57.017Z,4.50
2017-12-24T02:15:26.030Z,2.53
2017-12-24T02:17:55.027Z,4.13
2017-12-24T02:20:24.047Z,5.73
2017-12-24T02:22:53.056Z,2.40
2017-12-24T02:25:21.326Z,1.97
2017-12-24T02:27:50.392Z,3.37
2017-12-24T02:30:18.707Z,3.57
2017-12-24T02:32:46.948Z,3.10
2017-12-24T02:35:15.198Z,2.17
2017-12-24T02:37:44.194Z,3.00
2017-12-24T02:40:12.457Z,2.93
2017-12-24T02:42:40.702Z,3.33
2017-12-24T02:45:08.953Z,2.67
2017-12-24T02:47:37.195Z,5.27
2017-12-24T02:50:05.552Z,2.87
2017-12-24T02:52:34.588Z,2.13
2017-12-24T02:55:02.905Z,4.33
2017-12-24T02:57:31.211Z,2.30
2017-12-24T02:59:59.524Z,2.87
2017-12-24T03:02:27.775Z,3.60
2017-12-24T03:04:56.009Z,2.20
2017-12-24T03:07:25.040Z,0.97
2017-12-24T03:09:53.274Z,1.20
2017-12-24T03:12:21.528Z,1.20
2017-12-24T03:14:49.832Z,1.20
2017-12-24T03:17:18.115Z,1.20
2017-12-24T03:19:46.352Z,1.70
2017-12-24T03:22:15.393Z,1.47
2017-12-24T03:24:43.625Z,2.97
2017-12-24T03:27:11.874Z,3.30
2017-12-24T03:29:40.119Z,2.50
2017-12-24T03:32:08.370Z,1.50
2017-12-24T03:34:36.617Z,1.50
2017-12-24T03:37:05.639Z,1.37
2017-12-24T03:39:33.934Z,1.50
2017-12-24T03:42:02.429Z,1.30
2017-12-24T03:44:30.739Z,1.50
2017-12-24T03:46:58.998Z,1.63
2017-12-24T03:49:27.238Z,1.53
2017-12-24T03:51:55.495Z,1.30
2017-12-24T03:54:23.727Z,1.63
2017-12-24T03:56:51.979Z,2.00
2017-12-24T03:59:20.245Z,1.90
2017-12-24T04:01:48.601Z,2.40
2017-12-24T04:04:16.843Z,1.77
2017-12-24T04:06:45.086Z,1.90
2017-12-24T04:09:14.098Z,1.37
2017-12-24T04:11:43.118Z,2.77
2017-12-24T04:14:11.347Z,1.70
2017-12-24T04:16:39.598Z,1.30
2017-12-24T04:19:07.836Z,1.30
2017-12-24T04:21:36.094Z,1.50
2017-12-24T04:24:04.420Z,1.30
2017-12-24T04:26:32.883Z,1.87
2017-12-24T04:29:01.190Z,1.23
2017-12-24T04:31:29.441Z,1.40
2017-12-24T04:33:57.745Z,1.23
2017-12-24T04:36:25.976Z,1.40
2017-12-24T04:38:54.227Z,1.40
2017-12-24T04:41:22.470Z,1.40
2017-12-24T04:43:51.490Z,1.63
2017-12-24T04:46:19.738Z,1.77
2017-12-24T04:48:48.004Z,1.37
2017-12-24T04:51:16.253Z,1.30
2017-12-24T04:53:44.511Z,1.60
2017-12-24T04:56:12.749Z,1.33
2017-12-24T04:58:41.004Z,1.30
2017-12-24T05:01:10.003Z,1.53
2017-12-24T05:03:39.031Z,1.10
2017-12-24T05:06:08.040Z,1.30
2017-12-24T05:08:36.332Z,1.00
2017-12-24T05:11:05.358Z,1.03
2017-12-24T05:13:33.652Z,0.93
2017-12-24T05:16:02.049Z,1.00
2017-12-24T05:18:30.430Z,1.50
2017-12-24T05:20:58.671Z,1.30
2017-12-24T05:23:27.695Z,1.10
2017-12-24T05:25:56.698Z,1.20
2017-12-24T05:28:25.723Z,1.40
2017-12-24T05:30:54.008Z,1.30
2017-12-24T05:33:22.250Z,1.23
2017-12-24T05:35:50.535Z,1.40
2017-12-24T05:38:18.810Z,1.23
2017-12-24T05:40:47.054Z,1.80
2017-12-24T05:43:16.074Z,1.20
2017-12-24T05:45:44.324Z,1.30
2017-12-24T05:48:12.572Z,1.50
2017-12-24T05:50:40.812Z,2.80
2017-12-24T05:53:09.059Z,1.57
2017-12-24T05:55:37.291Z,2.73
2017-12-24T05:58:05.590Z,2.53
2017-12-24T06:00:33.886Z,3.70
2017-12-24T06:03:02.197Z,3.17
2017-12-24T06:05:30.533Z,3.33
2017-12-24T06:07:59.609Z,2.00
2017-12-24T06:10:27.846Z,3.63
2017-12-24T06:12:56.879Z,1.50
2017-12-24T06:15:25.122Z,1.60
2017-12-24T06:17:53.354Z,1.47
2017-12-24T06:20:21.603Z,1.53
2017-12-24T06:22:49.891Z,2.47
2017-12-24T06:25:18.161Z,1.30
2017-12-24T06:27:46.394Z,1.50
2017-12-24T06:30:15.445Z,1.60
2017-12-24T06:32:43.683Z,1.50
2017-12-24T06:35:12.721Z,1.90
2017-12-24T06:37:40.970Z,2.27
2017-12-24T06:40:09.242Z,1.80
2017-12-24T06:42:37.515Z,1.60
2017-12-24T06:45:05.842Z,1.40
2017-12-24T06:47:34.170Z,1.50
2017-12-24T06:50:02.545Z,1.30
2017-12-24T06:52:30.862Z,1.40
2017-12-24T06:54:59.920Z,1.33
2017-12-24T06:57:28.227Z,1.33
2017-12-24T06:59:57.247Z,1.43
2017-12-24T07:02:25.529Z,1.43
2017-12-24T07:04:54.555Z,1.33
2017-12-24T07:07:22.792Z,1.27
2017-12-24T07:09:51.060Z,1.40
2017-12-24T07:12:19.372Z,1.40
2017-12-24T07:14:47.689Z,1.30
2017-12-24T07:17:15.950Z,1.30
2017-12-24T07:19:44.203Z,1.20
2017-12-24T07:22:12.435Z,1.20
2017-12-24T07:24:41.463Z,1.27
2017-12-24T07:27:09.756Z,1.23
2017-12-24T07:29:38.046Z,1.73
2017-12-24T07:32:07.064Z,1.70
2017-12-24T07:34:35.348Z,4.00
2017-12-24T07:37:03.648Z,1.47
2017-12-24T07:39:31.975Z,1.30
2017-12-24T07:42:00.325Z,1.97
2017-12-24T07:44:28.598Z,1.50
2017-12-24T07:46:56.862Z,1.70
2017-12-24T07:49:25.875Z,1.77
2017-12-24T07:51:54.903Z,2.27
2017-12-24T07:54:23.151Z,1.50
2017-12-24T07:56:51.404Z,2.03
2017-12-24T07:59:19.655Z,1.63
2017-12-24T08:01:48.686Z,2.30
2017-12-24T08:04:16.928Z,1.40
2017-12-24T08:06:45.178Z,1.97
2017-12-24T08:09:13.427Z,1.73
2017-12-24T08:11:42.455Z,2.40
2017-12-24T08:14:10.698Z,1.63
2017-12-24T08:16:38.950Z,1.97
2017-12-24T08:19:07.189Z,2.00
2017-12-24T08:21:36.317Z,1.33
2017-12-24T08:24:04.648Z,2.97
2017-12-24T08:26:32.992Z,1.57
2017-12-24T08:29:01.331Z,1.50
2017-12-24T08:31:30.448Z,1.93
2017-12-24T08:33:58.695Z,1.43
2017-12-24T08:36:26.972Z,1.20
2017-12-24T08:38:55.239Z,1.47
2017-12-24T08:41:23.501Z,2.20
2017-12-24T08:43:51.828Z,1.83
2017-12-24T08:46:20.917Z,1.10
2017-12-24T08:48:49.162Z,1.20
2017-12-24T08:51:17.475Z,1.30
2017-12-24T08:53:45.745Z,1.10
2017-12-24T08:56:13.987Z,1.30
2017-12-24T08:58:43.011Z,1.20
2017-12-24T09:01:12.024Z,8.73
2017-12-24T09:03:40.290Z,5.80
2017-12-24T09:06:09.290Z,3.47
2017-12-24T09:08:37.560Z,1.80
2017-12-24T09:11:05.828Z,1.67
2017-12-24T09:13:34.143Z,1.30
2017-12-24T09:16:02.411Z,2.30
2017-12-24T09:18:30.889Z,1.30
2017-12-24T09:20:59.147Z,1.20
2017-12-24T09:23:28.172Z,0.90
2017-12-24T09:25:56.416Z,1.30
2017-12-24T09:28:24.692Z,0.90
2017-12-24T09:30:52.934Z,0.80
2017-12-24T09:33:21.198Z,2.20
2017-12-24T09:35:49.434Z,1.33
2017-12-24T09:38:17.697Z,2.03
2017-12-24T09:40:45.938Z,1.30
2017-12-24T09:43:15.694Z,0.90
2017-12-24T09:45:44.696Z,1.10
2017-12-24T09:48:13.723Z,1.00
2017-12-24T09:50:41.964Z,1.17
2017-12-24T09:53:10.223Z,1.20
2017-12-24T09:55:38.538Z,1.30
2017-12-24T09:58:06.864Z,1.60
2017-12-24T10:00:35.883Z,1.17
2017-12-24T10:03:04.946Z,1.33
2017-12-24T10:05:33.228Z,1.20
2017-12-24T10:08:01.523Z,1.00
2017-12-24T10:10:35.212Z,1.63
2017-12-24T10:13:03.570Z,1.40
2017-12-24T10:15:32.081Z,1.57
2017-12-24T10:18:00.489Z,1.10
2017-12-24T10:20:28.726Z,1.20
2017-12-24T10:22:56.991Z,1.87
2017-12-24T10:25:25.228Z,1.30
2017-12-24T10:27:53.522Z,1.60
2017-12-24T10:30:21.776Z,1.80
2017-12-24T10:32:50.016Z,1.33
2017-12-24T10:35:18.337Z,1.40
2017-12-24T10:37:46.571Z,1.23
2017-12-24T10:40:14.864Z,1.70
2017-12-24T10:42:43.863Z,1.30
2017-12-24T10:45:12.939Z,1.53
2017-12-24T10:47:41.127Z,1.27
2017-12-24T10:50:10.179Z,1.60
2017-12-24T10:52:39.777Z,1.23
2017-12-24T10:55:08.796Z,1.23
2017-12-24T10:57:37.812Z,1.37
2017-12-24T11:00:06.066Z,1.50
2017-12-24T11:02:34.336Z,2.07
2017-12-24T11:05:02.701Z,1.80
2017-12-24T11:07:31.755Z,1.30
2017-12-24T11:10:00.924Z,1.67
2017-12-24T11:12:29.119Z,2.77
2017-12-24T11:14:57.450Z,3.83
2017-12-24T11:17:25.639Z,1.73
2017-12-24T11:19:53.955Z,1.63
2017-12-24T11:22:22.159Z,1.43
2017-12-24T11:24:50.463Z,2.20
2017-12-24T11:27:18.713Z,1.20
2017-12-24T11:29:47.744Z,2.50
2017-12-24T11:32:16.028Z,1.87
2017-12-24T11:34:44.309Z,1.30
2017-12-24T11:37:12.562Z,1.70
2017-12-24T11:39:40.819Z,1.60
2017-12-24T11:42:09.070Z,1.37
2017-12-24T11:44:37.332Z,1.20
2017-12-24T11:47:07.169Z,1.97
2017-12-24T11:49:36.229Z,1.40
2017-12-24T11:52:04.491Z,1.33
2017-12-24T11:54:33.610Z,1.00
2017-12-24T11:57:01.914Z,1.23
2017-12-24T11:59:30.190Z,1.53
2017-12-24T12:01:58.530Z,1.60
2017-12-24T12:04:27.539Z,1.93
2017-12-24T12:06:56.578Z,1.23
2017-12-24T12:09:24.821Z,1.97
2017-12-24T12:11:53.077Z,1.13
2017-12-24T12:14:21.372Z,1.00
2017-12-24T12:16:49.706Z,1.00
2017-12-24T12:19:18.761Z,1.30
2017-12-24T12:21:47.010Z,1.00
2017-12-24T12:24:16.019Z,1.20
2017-12-24T12:26:45.056Z,1.37
2017-12-24T12:29:13.303Z,1.40
2017-12-24T12:31:42.340Z,0.97
2017-12-24T12:34:10.587Z,1.00
2017-12-24T12:36:38.839Z,0.90
2017-12-24T12:39:07.078Z,0.80
2017-12-24T12:41:35.411Z,1.33
2017-12-24T12:44:03.779Z,1.70
2017-12-24T12:46:35.933Z,1.23
2017-12-24T12:49:04.976Z,1.13
2017-12-24T12:51:33.345Z,1.00
2017-12-24T12:54:01.731Z,0.90
2017-12-24T12:56:30.123Z,1.20
2017-12-24T12:58:58.415Z,0.90
2017-12-24T13:01:27.434Z,1.20
2017-12-24T13:03:55.684Z,0.90
2017-12-24T13:06:23.929Z,1.00
2017-12-24T13:08:52.163Z,0.80
2017-12-24T13:11:20.462Z,0.90
2017-12-24T13:13:49.475Z,3.13
2017-12-24T13:16:17.734Z,0.90
2017-12-24T13:18:45.988Z,1.00
2017-12-24T13:21:14.263Z,0.80
2017-12-24T13:23:42.514Z,1.10
2017-12-24T13:26:10.761Z,1.37
2017-12-24T13:28:39.006Z,1.53
2017-12-24T13:31:08.039Z,1.20
2017-12-24T13:33:36.275Z,1.00
2017-12-24T13:36:04.822Z,1.20
2017-12-24T13:38:33.253Z,0.93
2017-12-24T13:41:02.362Z,1.33
2017-12-24T13:43:30.681Z,1.27
2017-12-24T13:46:00.712Z,1.13
2017-12-24T13:48:29.756Z,1.50
2017-12-24T13:50:58.003Z,1.00
2017-12-24T13:53:26.298Z,1.00
2017-12-24T13:55:55.305Z,1.00
2017-12-24T13:58:24.318Z,1.43
2017-12-24T14:00:53.330Z,4.33
2017-12-24T14:03:22.347Z,1.20
2017-12-24T14:05:51.351Z,1.00
2017-12-24T14:08:19.666Z,1.50
2017-12-24T14:10:47.915Z,1.20
2017-12-24T14:13:17.310Z,1.20
2017-12-24T14:15:45.550Z,0.90
2017-12-24T14:18:13.806Z,1.73
2017-12-24T14:20:42.815Z,1.57
2017-12-24T14:23:11.856Z,1.90
2017-12-24T14:25:40.094Z,2.30
2017-12-24T14:28:08.363Z,1.70
2017-12-24T14:30:36.615Z,1.60
2017-12-24T14:33:05.838Z,1.73
2017-12-24T14:35:34.114Z,2.07
2017-12-24T14:38:02.561Z,2.57
2017-12-24T14:40:30.915Z,2.27
2017-12-24T14:42:59.187Z,2.47
2017-12-24T14:45:27.423Z,2.20
2017-12-24T14:47:55.671Z,1.63
2017-12-24T14:50:23.927Z,1.40
2017-12-24T14:52:52.938Z,2.20
2017-12-24T14:55:21.934Z,1.13
2017-12-24T14:57:50.991Z,1.30
2017-12-24T15:00:19.268Z,1.30
2017-12-24T15:02:47.515Z,1.80
2017-12-24T15:05:16.540Z,4.03
2017-12-24T15:07:44.791Z,2.67
2017-12-24T15:10:13.058Z,1.57
2017-12-24T15:12:41.295Z,1.40
2017-12-24T15:15:10.329Z,1.30
2017-12-24T15:17:38.590Z,1.50
2017-12-24T15:20:07.615Z,1.90
2017-12-24T15:22:35.858Z,1.57
2017-12-24T15:25:04.129Z,1.50
2017-12-24T15:27:32.401Z,1.60
2017-12-24T15:30:00.759Z,1.87
2017-12-24T15:32:29.015Z,1.50
2017-12-24T15:34:57.279Z,4.60
2017-12-24T15:37:25.898Z,2.60
2017-12-24T15:39:54.178Z,1.67
2017-12-24T15:42:22.427Z,5.70
2017-12-24T15:44:50.720Z,3.27
2017-12-24T15:47:19.011Z,7.10
2017-12-24T15:49:47.283Z,2.70
2017-12-24T15:52:15.522Z,1.80
2017-12-24T15:54:44.563Z,1.97
2017-12-24T15:57:13.595Z,2.70
2017-12-24T15:59:41.851Z,1.90
2017-12-24T16:02:10.087Z,2.10
2017-12-24T16:04:38.342Z,2.07
2017-12-24T16:07:07.352Z,2.00
2017-12-24T16:09:36.370Z,1.60
2017-12-24T16:12:04.654Z,1.60
2017-12-24T16:14:33.015Z,1.40
2017-12-24T16:17:01.338Z,1.50
2017-12-24T16:19:29.645Z,1.37
2017-12-24T16:21:58.670Z,2.00
2017-12-24T16:24:26.929Z,1.63
2017-12-24T16:26:55.170Z,1.60
2017-12-24T16:29:23.435Z,2.23
2017-12-24T16:31:51.695Z,1.60
2017-12-24T16:34:19.988Z,3.20
2017-12-24T16:36:48.276Z,1.40
2017-12-24T16:39:16.515Z,2.30
2017-12-24T16:41:44.851Z,1.50
2017-12-24T16:44:13.117Z,2.17
2017-12-24T16:46:42.902Z,1.43
2017-12-24T16:49:12.151Z,1.40
2017-12-24T16:51:41.182Z,1.67
2017-12-24T16:54:09.519Z,1.40
2017-12-24T16:56:37.791Z,2.80
2017-12-24T16:59:06.063Z,2.17
2017-12-24T17:01:34.348Z,1.40
2017-12-24T17:04:02.766Z,3.33
2017-12-24T17:06:31.148Z,1.57
2017-12-24T17:08:59.459Z,2.07
2017-12-24T17:11:28.484Z,2.37
2017-12-24T17:13:56.731Z,1.40
2017-12-24T17:16:24.982Z,3.13
2017-12-24T17:18:54.036Z,5.00
2017-12-24T17:21:22.287Z,1.77
2017-12-24T17:23:50.584Z,5.07
2017-12-24T17:26:18.861Z,4.10
2017-12-24T17:28:48.660Z,2.27
2017-12-24T17:31:16.903Z,1.57
2017-12-24T17:33:45.152Z,1.63
2017-12-24T17:36:14.179Z,1.73
2017-12-24T17:38:42.435Z,2.17
2017-12-24T17:41:10.695Z,2.13
2017-12-24T17:43:38.942Z,1.70
2017-12-24T17:46:07.214Z,1.67
2017-12-24T17:48:36.249Z,2.33
2017-12-24T17:51:04.535Z,1.80
2017-12-24T17:53:32.808Z,1.93
2017-12-24T17:56:01.959Z,1.73
2017-12-24T17:58:30.430Z,2.07
2017-12-24T18:00:58.671Z,3.70
2017-12-24T18:03:27.714Z,4.97
2017-12-24T18:05:55.970Z,8.83
2017-12-24T18:08:24.266Z,2.20
2017-12-24T18:10:52.578Z,1.77
2017-12-24T18:13:20.886Z,1.97
2017-12-24T18:15:49.143Z,1.90
2017-12-24T18:18:17.395Z,1.60
2017-12-24T18:20:45.642Z,1.60
2017-12-24T18:23:13.898Z,2.00
2017-12-24T18:25:42.150Z,1.97
2017-12-24T18:28:10.411Z,2.13
2017-12-24T18:30:38.663Z,1.93
2017-12-24T18:33:06.918Z,2.50
2017-12-24T18:35:35.245Z,2.07
2017-12-24T18:38:03.646Z,1.60
2017-12-24T18:40:32.890Z,1.63
2017-12-24T18:43:01.222Z,1.57
2017-12-24T18:45:29.454Z,1.63
2017-12-24T18:47:57.757Z,1.87
2017-12-24T18:50:26.000Z,2.63
2017-12-24T18:52:54.258Z,1.47
2017-12-24T18:55:22.576Z,1.83
2017-12-24T18:57:51.626Z,2.03
2017-12-24T19:00:19.892Z,2.20
2017-12-24T19:02:48.912Z,6.00
2017-12-24T19:05:17.200Z,2.27
2017-12-24T19:07:46.210Z,3.47
2017-12-24T19:10:14.459Z,3.10
2017-12-24T19:12:42.714Z,2.57
2017-12-24T19:15:10.950Z,2.93
2017-12-24T19:17:39.989Z,1.90
2017-12-24T19:20:08.239Z,2.07
2017-12-24T19:22:36.495Z,2.47
2017-12-24T19:25:04.962Z,2.00
2017-12-24T19:27:33.241Z,2.07
2017-12-24T19:30:01.595Z,1.67
2017-12-24T19:32:30.031Z,1.83
2017-12-24T19:34:59.171Z,1.70
2017-12-24T19:37:27.408Z,2.03
2017-12-24T19:39:56.434Z,1.53
2017-12-24T19:42:24.684Z,2.30
2017-12-24T19:44:52.985Z,2.00
2017-12-24T19:47:21.238Z,3.37
2017-12-24T19:49:49.592Z,1.70
2017-12-24T19:52:17.898Z,1.60
2017-12-24T19:54:46.195Z,2.10
2017-12-24T19:57:14.471Z,2.00
2017-12-24T19:59:42.765Z,3.20
2017-12-24T20:02:10.999Z,3.93
2017-12-24T20:04:39.305Z,3.33
2017-12-24T20:07:07.630Z,2.70
2017-12-24T20:09:35.985Z,3.23
2017-12-24T20:12:04.352Z,2.87
2017-12-24T20:14:32.705Z,4.40
2017-12-24T20:17:01.097Z,5.80
2017-12-24T20:19:29.394Z,4.97
2017-12-24T20:21:57.693Z,4.87
2017-12-24T20:24:25.959Z,5.63
2017-12-24T20:26:54.242Z,4.97
2017-12-24T20:29:22.558Z,5.03
2017-12-24T20:31:50.849Z,5.60
2017-12-24T20:34:19.172Z,5.53
2017-12-24T20:36:47.463Z,5.07
2017-12-24T20:39:16.536Z,6.10
2017-12-24T20:41:44.829Z,4.60
2017-12-24T20:44:13.125Z,3.90
2017-12-24T20:46:41.432Z,3.93
2017-12-24T20:49:10.750Z,3.97
2017-12-24T20:51:39.033Z,4.50
2017-12-24T20:54:07.328Z,4.30
2017-12-24T20:56:35.658Z,5.77
2017-12-24T20:59:04.060Z,3.77
2017-12-24T21:01:32.364Z,3.90
2017-12-24T21:04:00.673Z,4.07
2017-12-24T21:06:28.925Z,4.70
2017-12-24T21:08:58.035Z,4.13
2017-12-24T21:11:26.338Z,6.00
2017-12-24T21:13:54.583Z,3.47
2017-12-24T21:16:23.647Z,4.23
2017-12-24T21:18:51.996Z,3.53
2017-12-24T21:21:21.063Z,4.33
2017-12-24T21:23:50.718Z,2.60
2017-12-24T21:26:19.920Z,2.70
2017-12-24T21:28:48.964Z,2.73
2017-12-24T21:31:17.291Z,2.50
2017-12-24T21:33:45.575Z,2.50
2017-12-24T21:36:13.874Z,2.70
2017-12-24T21:38:42.188Z,2.90
2017-12-24T21:41:10.481Z,2.50
2017-12-24T21:43:39.522Z,2.03
2017-12-24T21:46:07.880Z,3.43
2017-12-24T21:48:36.348Z,2.40
2017-12-24T21:51:04.636Z,2.30
2017-12-24T21:53:32.891Z,2.63
2017-12-24T21:56:01.187Z,3.50
2017-12-24T21:58:29.444Z,2.53
2017-12-24T22:00:57.743Z,2.70
2017-12-24T22:03:26.028Z,2.90
2017-12-24T22:05:54.388Z,2.63
2017-12-24T22:08:22.676Z,2.97
2017-12-24T22:10:50.999Z,2.27
2017-12-24T22:13:19.321Z,2.50
2017-12-24T22:15:47.593Z,2.80
2017-12-24T22:18:15.902Z,3.07
2017-12-24T22:20:44.150Z,2.83
2017-12-24T22:23:12.457Z,3.00
2017-12-24T22:25:40.694Z,2.73
2017-12-24T22:28:09.011Z,2.93
2017-12-24T22:30:38.015Z,3.30
2017-12-24T22:33:07.094Z,2.57
2017-12-24T22:35:35.451Z,3.23
2017-12-24T22:38:03.746Z,3.00
2017-12-24T22:40:32.274Z,3.53
2017-12-24T22:43:01.470Z,3.87
2017-12-24T22:45:29.786Z,2.50
2017-12-24T22:47:58.089Z,3.27
2017-12-24T22:50:27.146Z,2.50
2017-12-24T22:52:55.443Z,4.70
2017-12-24T22:55:23.743Z,2.40
2017-12-24T22:57:52.020Z,2.67
2017-12-24T23:00:20.343Z,2.30
2017-12-24T23:02:49.518Z,2.80
2017-12-24T23:05:17.802Z,2.70
2017-12-24T23:07:46.043Z,2.67
2017-12-24T23:10:15.128Z,2.73
2017-12-24T23:12:43.416Z,2.60
2017-12-24T23:15:11.653Z,2.87
2017-12-24T23:17:40.256Z,3.30
2017-12-24T23:20:08.531Z,2.97
2017-12-24T23:22:36.834Z,2.77
2017-12-24T23:25:05.116Z,2.67
2017-12-24T23:27:33.946Z,3.07
2017-12-24T23:30:02.254Z,3.10
2017-12-24T23:32:30.603Z,2.67
2017-12-24T23:34:58.928Z,3.23
2017-12-24T23:37:27.224Z,2.97
2017-12-24T23:39:56.520Z,3.23
2017-12-24T23:42:24.770Z,2.83
2017-12-24T23:44:53.045Z,3.10
2017-12-24T23:47:22.126Z,2.37
2017-12-24T23:49:51.894Z,3.20
2017-12-24T23:52:20.221Z,2.97
2017-12-24T23:54:48.578Z,3.20
2017-12-24T23:57:16.839Z,3.20
2017-12-24T23:59:45.866Z,3.00
